createdAt,value
2018-12-09T00:01:46.443Z,26.07
2018-12-09T00:04:16.943Z,26.13
2018-12-09T00:06:47.465Z,22.30
2018-12-09T00:09:18.446Z,21.37
2018-12-09T00:11:49.577Z,22.07
2018-12-09T00:14:20.260Z,25.37
2018-12-09T00:16:50.816Z,20.80
2018-12-09T00:19:22.623Z,18.10
2018-12-09T00:21:53.250Z,17.80
2018-12-09T00:24:23.987Z,22.93
2018-12-09T00:26:54.603Z,21.33
2018-12-09T00:29:26.483Z,25.53
2018-12-09T00:31:57.005Z,26.43
2018-12-09T00:34:27.250Z,29.90
2018-12-09T00:36:58.010Z,27.97
2018-12-09T00:39:29.178Z,22.40
2018-12-09T00:41:59.720Z,19.50
2018-12-09T00:44:30.851Z,21.80
2018-12-09T00:47:01.392Z,21.87
2018-12-09T00:49:33.205Z,21.90
2018-12-09T00:52:03.691Z,22.90
2018-12-09T00:54:35.009Z,23.63
2018-12-09T00:57:05.612Z,23.80
2018-12-09T00:59:36.411Z,26.10
2018-12-09T01:02:13.589Z,24.93
2018-12-09T01:04:44.063Z,25.77
2018-12-09T01:07:14.930Z,25.10
2018-12-09T01:09:45.686Z,28.30
2018-12-09T01:12:16.730Z,28.03
2018-12-09T01:14:47.620Z,26.60
2018-12-09T01:17:18.324Z,30.07
2018-12-09T01:19:49.837Z,29.10
2018-12-09T01:22:20.432Z,28.63
2018-12-09T01:24:51.271Z,27.20
2018-12-09T01:27:22.163Z,24.37
2018-12-09T01:29:53.702Z,27.60
2018-12-09T01:32:25.136Z,24.50
2018-12-09T01:34:55.411Z,23.40
2018-12-09T01:37:26.517Z,20.77
2018-12-09T01:39:58.958Z,20.73
2018-12-09T01:42:30.448Z,22.20
2018-12-09T01:45:01.060Z,19.73
2018-12-09T01:47:31.678Z,17.40
2018-12-09T01:50:02.756Z,21.67
2018-12-09T01:52:33.517Z,20.40
2018-12-09T01:55:04.597Z,19.77
2018-12-09T01:57:35.543Z,14.87
2018-12-09T02:00:06.872Z,14.57
2018-12-09T02:02:37.811Z,14.67
2018-12-09T02:05:08.536Z,20.67
2018-12-09T02:07:39.761Z,20.40
2018-12-09T02:10:11.388Z,21.77
2018-12-09T02:12:42.071Z,20.83
2018-12-09T02:15:12.903Z,23.30
2018-12-09T02:17:44.241Z,22.37
2018-12-09T02:20:15.290Z,25.30
2018-12-09T02:22:45.624Z,25.50
2018-12-09T02:25:16.043Z,25.00
2018-12-09T02:27:46.339Z,24.93
2018-12-09T02:30:17.372Z,22.90
2018-12-09T02:32:47.812Z,24.20
2018-12-09T02:35:18.258Z,23.70
2018-12-09T02:37:49.036Z,26.00
2018-12-09T02:40:19.312Z,25.90
2018-12-09T02:42:49.764Z,24.97
2018-12-09T02:45:20.470Z,26.93
2018-12-09T02:47:50.986Z,25.80
2018-12-09T02:50:21.911Z,26.33
2018-12-09T02:52:52.332Z,26.30
2018-12-09T02:55:22.773Z,25.87
2018-12-09T02:57:53.291Z,26.60
2018-12-09T03:00:23.772Z,26.47
2018-12-09T03:02:54.398Z,26.07
2018-12-09T03:05:24.674Z,25.63
2018-12-09T03:07:55.453Z,26.13
2018-12-09T03:10:27.315Z,28.70
2018-12-09T03:12:58.250Z,30.03
2018-12-09T03:15:28.888Z,25.67
2018-12-09T03:17:59.530Z,24.90
2018-12-09T03:20:30.593Z,27.27
2018-12-09T03:23:01.145Z,36.47
2018-12-09T03:25:31.706Z,35.63
2018-12-09T03:28:02.032Z,32.00
2018-12-09T03:30:34.080Z,30.27
2018-12-09T03:33:04.792Z,29.33
2018-12-09T03:35:35.570Z,30.47
2018-12-09T03:38:06.284Z,30.30
2018-12-09T03:40:37.166Z,28.10
2018-12-09T03:43:07.683Z,31.07
2018-12-09T03:45:38.717Z,30.57
2018-12-09T03:48:09.433Z,30.10
2018-12-09T03:50:41.203Z,34.20
2018-12-09T03:53:11.858Z,30.53
2018-12-09T03:55:42.585Z,28.20
2018-12-09T03:58:13.668Z,24.30
2018-12-09T04:00:44.752Z,23.43
2018-12-09T04:03:15.108Z,26.27
2018-12-09T04:05:45.460Z,30.20
2018-12-09T04:08:16.159Z,35.27
2018-12-09T04:10:46.555Z,36.10
2018-12-09T04:13:17.402Z,33.47
2018-12-09T04:15:48.192Z,28.90
2018-12-09T04:18:19.086Z,32.70
2018-12-09T04:20:49.825Z,29.87
2018-12-09T04:23:20.557Z,28.87
2018-12-09T04:25:51.677Z,26.97
2018-12-09T04:28:22.620Z,24.13
2018-12-09T04:30:53.435Z,25.57
2018-12-09T04:33:24.496Z,25.67
2018-12-09T04:35:55.273Z,28.00
2018-12-09T04:38:26.639Z,26.80
2018-12-09T04:40:58.400Z,26.87
2018-12-09T04:43:29.061Z,26.83
2018-12-09T04:46:00.368Z,24.20
2018-12-09T04:48:31.147Z,29.23
2018-12-09T04:51:03.068Z,29.10
2018-12-09T04:53:34.138Z,32.27
2018-12-09T04:56:04.840Z,29.20
2018-12-09T04:58:35.829Z,29.43
2018-12-09T05:01:06.349Z,29.33
2018-12-09T05:03:37.087Z,29.87
2018-12-09T05:06:08.227Z,25.13
2018-12-09T05:08:38.597Z,26.47
2018-12-09T05:11:10.672Z,32.33
2018-12-09T05:13:42.163Z,29.30
2018-12-09T05:16:13.348Z,28.73
2018-12-09T05:18:43.804Z,28.97
2018-12-09T05:21:14.894Z,31.00
2018-12-09T05:23:45.491Z,29.57
2018-12-09T05:26:16.205Z,39.10
2018-12-09T05:28:46.736Z,34.63
2018-12-09T05:31:18.217Z,36.70
2018-12-09T05:33:49.156Z,47.93
2018-12-09T05:36:20.190Z,40.67
2018-12-09T05:38:50.785Z,34.77
2018-12-09T05:41:21.865Z,34.20
2018-12-09T05:43:52.253Z,34.93
2018-12-09T05:46:23.523Z,34.30
2018-12-09T05:48:53.778Z,40.23
2018-12-09T05:51:26.065Z,35.40
2018-12-09T05:53:56.987Z,33.90
2018-12-09T05:56:27.738Z,31.17
2018-12-09T05:58:58.323Z,43.33
2018-12-09T06:01:31.412Z,37.70
2018-12-09T06:04:02.477Z,40.90
2018-12-09T06:06:33.115Z,36.70
2018-12-09T06:09:03.631Z,46.00
2018-12-09T06:11:34.965Z,39.63
2018-12-09T06:14:06.142Z,41.00
2018-12-09T06:16:36.413Z,40.93
2018-12-09T06:19:07.316Z,61.57
2018-12-09T06:21:38.574Z,54.97
2018-12-09T06:24:09.246Z,59.93
2018-12-09T06:26:39.787Z,54.47
2018-12-09T06:29:10.755Z,47.37
2018-12-09T06:31:41.871Z,48.17
2018-12-09T06:34:12.339Z,54.37
2018-12-09T06:36:42.661Z,54.43
2018-12-09T06:39:13.188Z,52.80
2018-12-09T06:41:43.461Z,50.90
2018-12-09T06:44:14.175Z,51.20
2018-12-09T06:46:44.655Z,47.77
2018-12-09T06:49:15.431Z,55.10
2018-12-09T06:51:46.388Z,41.90
2018-12-09T06:54:16.780Z,32.50
2018-12-09T06:56:47.345Z,30.83
2018-12-09T06:59:17.867Z,33.67
2018-12-09T07:01:49.418Z,34.77
2018-12-09T07:04:20.137Z,37.80
2018-12-09T07:06:51.375Z,39.37
2018-12-09T07:09:22.056Z,35.40
2018-12-09T07:11:53.157Z,34.50
2018-12-09T07:14:24.473Z,38.20
2018-12-09T07:16:55.652Z,35.70
2018-12-09T07:19:26.723Z,35.47
2018-12-09T07:21:57.927Z,33.93
2018-12-09T07:24:28.853Z,36.50
2018-12-09T07:26:59.606Z,42.80
2018-12-09T07:29:30.771Z,37.67
2018-12-09T07:32:02.298Z,38.97
2018-12-09T07:34:33.352Z,36.07
2018-12-09T07:37:04.392Z,34.60
2018-12-09T07:39:35.032Z,33.20
2018-12-09T07:42:06.574Z,44.73
2018-12-09T07:44:37.345Z,35.40
2018-12-09T07:47:08.071Z,38.20
2018-12-09T07:49:38.908Z,41.83
2018-12-09T07:52:10.939Z,37.70
2018-12-09T07:54:41.473Z,34.07
2018-12-09T07:57:11.876Z,40.50
2018-12-09T07:59:42.961Z,42.27
2018-12-09T08:02:14.006Z,43.33
2018-12-09T08:04:45.112Z,46.67
2018-12-09T08:07:15.806Z,48.57
2018-12-09T08:09:46.538Z,42.37
2018-12-09T08:12:18.269Z,36.80
2018-12-09T08:14:49.609Z,32.67
2018-12-09T08:17:20.218Z,39.20
2018-12-09T08:19:51.771Z,32.90
2018-12-09T08:22:22.853Z,30.43
2018-12-09T08:24:53.857Z,41.77
2018-12-09T08:27:24.592Z,45.63
2018-12-09T08:29:55.552Z,51.77
2018-12-09T08:32:26.375Z,61.80
2018-12-09T08:34:57.352Z,54.33
2018-12-09T08:37:27.855Z,51.50
2018-12-09T08:39:58.804Z,48.53
2018-12-09T08:42:30.589Z,51.60
2018-12-09T08:45:01.673Z,54.50
2018-12-09T08:47:32.381Z,49.40
2018-12-09T08:50:03.312Z,41.57
2018-12-09T08:52:34.037Z,46.20
2018-12-09T08:55:04.187Z,50.87
2018-12-09T08:57:34.124Z,44.67
2018-12-09T09:00:05.376Z,49.73
2018-12-09T09:02:36.460Z,57.57
2018-12-09T09:05:07.770Z,52.67
2018-12-09T09:07:39.283Z,53.23
2018-12-09T09:10:10.735Z,56.37
2018-12-09T09:12:42.592Z,49.00
2018-12-09T09:15:13.272Z,46.10
2018-12-09T09:17:43.846Z,42.87
2018-12-09T09:20:14.259Z,41.70
2018-12-09T09:22:45.474Z,41.93
2018-12-09T09:25:15.899Z,38.30
2018-12-09T09:27:46.269Z,38.50
2018-12-09T09:30:16.637Z,38.80
2018-12-09T09:32:46.991Z,35.50
2018-12-09T09:35:17.427Z,35.63
2018-12-09T09:37:48.192Z,38.63
2018-12-09T09:40:18.537Z,29.10
2018-12-09T09:42:49.082Z,31.80
2018-12-09T09:45:19.822Z,32.37
2018-12-09T09:47:50.413Z,28.80
2018-12-09T09:50:20.910Z,29.87
2018-12-09T09:52:52.182Z,35.97
2018-12-09T09:55:22.569Z,32.20
2018-12-09T09:57:52.751Z,35.63
2018-12-09T10:00:22.895Z,31.93
2018-12-09T10:02:53.923Z,39.10
2018-12-09T10:05:24.289Z,36.53
2018-12-09T10:07:54.646Z,34.60
2018-12-09T10:10:25.299Z,36.20
2018-12-09T10:12:55.756Z,33.93
2018-12-09T10:15:26.363Z,47.80
2018-12-09T10:17:57.370Z,31.83
2018-12-09T10:20:28.145Z,32.47
2018-12-09T10:22:59.081Z,30.20
2018-12-09T10:25:29.613Z,34.00
2018-12-09T10:27:59.959Z,29.70
2018-12-09T10:30:30.464Z,28.53
2018-12-09T10:33:02.341Z,30.80
2018-12-09T10:35:33.241Z,29.80
2018-12-09T10:38:03.822Z,32.20
2018-12-09T10:40:35.425Z,29.67
2018-12-09T10:43:06.223Z,29.00
2018-12-09T10:45:36.984Z,28.63
2018-12-09T10:48:07.871Z,28.97
2018-12-09T10:50:38.283Z,29.87
2018-12-09T10:53:10.178Z,34.40
2018-12-09T10:55:40.966Z,31.63
2018-12-09T10:58:12.023Z,32.60
2018-12-09T11:00:47.642Z,28.07
2018-12-09T11:03:20.168Z,28.10
2018-12-09T11:05:51.154Z,24.70
2018-12-09T11:08:22.791Z,20.03
2018-12-09T11:10:53.989Z,24.43
2018-12-09T11:13:25.659Z,22.03
2018-12-09T11:15:56.688Z,18.20
2018-12-09T11:18:27.569Z,17.90
2018-12-09T11:20:58.181Z,15.20
2018-12-09T11:23:29.391Z,17.80
2018-12-09T11:26:00.401Z,14.67
2018-12-09T11:28:31.091Z,12.30
2018-12-09T11:31:02.348Z,13.67
2018-12-09T11:33:33.895Z,14.93
2018-12-09T11:36:04.636Z,26.50
2018-12-09T11:38:35.364Z,19.80
2018-12-09T11:41:05.722Z,16.00
2018-12-09T11:43:37.263Z,8.03
2018-12-09T11:46:08.340Z,13.80
2018-12-09T11:48:39.384Z,15.90
2018-12-09T11:51:10.099Z,6.83
2018-12-09T11:53:42.193Z,10.10
2018-12-09T11:56:12.535Z,15.97
2018-12-09T11:58:43.536Z,21.23
2018-12-09T12:01:13.977Z,16.07
2018-12-09T12:03:45.164Z,14.40
2018-12-09T12:06:16.198Z,13.60
2018-12-09T12:08:47.197Z,13.07
2018-12-09T12:11:17.973Z,14.23
2018-12-09T12:13:49.244Z,13.63
2018-12-09T12:16:20.455Z,15.00
2018-12-09T12:18:50.902Z,17.30
2018-12-09T12:21:21.296Z,13.83
2018-12-09T12:23:52.668Z,10.23
2018-12-09T12:26:23.685Z,11.10
2018-12-09T12:28:54.152Z,19.03
2018-12-09T12:31:24.554Z,12.23
2018-12-09T12:33:55.502Z,11.83
2018-12-09T12:36:25.895Z,12.63
2018-12-09T12:38:56.532Z,15.47
2018-12-09T12:41:27.187Z,10.33
2018-12-09T12:43:58.250Z,11.40
2018-12-09T12:46:28.664Z,11.80
2018-12-09T12:48:59.298Z,12.00
2018-12-09T12:51:30.256Z,19.43
2018-12-09T12:54:02.012Z,15.10
2018-12-09T12:56:32.482Z,13.90
2018-12-09T12:59:02.933Z,16.03
2018-12-09T13:01:33.788Z,17.20
2018-12-09T13:04:05.461Z,44.37
2018-12-09T13:06:36.201Z,31.33
2018-12-09T13:09:08.510Z,20.90
2018-12-09T13:11:39.284Z,25.53
2018-12-09T13:14:10.081Z,19.80
2018-12-09T13:16:41.192Z,23.17
2018-12-09T13:19:11.692Z,23.90
2018-12-09T13:21:42.039Z,32.90
2018-12-09T13:24:13.467Z,25.47
2018-12-09T13:26:44.077Z,14.23
2018-12-09T13:29:14.800Z,19.13
2018-12-09T13:36:39.440Z,44.80
2018-12-09T13:39:09.935Z,42.03
2018-12-09T13:41:40.613Z,37.70
2018-12-09T13:44:11.101Z,43.17
2018-12-09T13:46:41.546Z,45.63
2018-12-09T13:49:12.405Z,47.50
2018-12-09T13:51:42.942Z,40.47
2018-12-09T13:54:14.464Z,42.07
2018-12-09T13:56:45.066Z,47.50
2018-12-09T13:59:15.515Z,42.77
2018-12-09T14:01:46.043Z,44.27
2018-12-09T14:04:17.522Z,50.33
2018-12-09T14:06:48.253Z,59.73
2018-12-09T14:09:18.861Z,87.90
2018-12-09T14:11:49.212Z,68.03
2018-12-09T14:14:20.208Z,58.57
2018-12-09T14:16:51.443Z,61.77
2018-12-09T14:19:21.896Z,58.20
2018-12-09T14:21:52.539Z,57.60
2018-12-09T14:24:22.856Z,65.43
2018-12-09T14:26:53.373Z,57.67
2018-12-09T14:29:24.328Z,62.87
2018-12-09T14:31:55.391Z,60.67
2018-12-09T14:34:26.591Z,57.03
2018-12-09T14:36:57.284Z,56.10
2018-12-09T14:39:28.051Z,57.10
2018-12-09T14:41:58.855Z,64.03
2018-12-09T14:44:30.059Z,70.23
2018-12-09T14:47:00.456Z,77.07
2018-12-09T14:49:31.219Z,69.03
2018-12-09T14:52:01.800Z,49.87
2018-12-09T14:54:32.697Z,45.00
2018-12-09T14:57:03.271Z,47.27
2018-12-09T14:59:33.767Z,47.00
2018-12-09T15:02:04.363Z,42.80
2018-12-09T15:04:35.551Z,30.17
2018-12-09T15:07:05.936Z,25.57
2018-12-09T15:09:36.858Z,22.00
2018-12-09T15:12:08.156Z,29.30
2018-12-09T15:14:39.672Z,28.27
2018-12-09T15:17:11.002Z,29.43
2018-12-09T15:19:41.338Z,33.53
2018-12-09T15:22:11.705Z,42.10
2018-12-09T15:24:43.315Z,38.17
2018-12-09T15:27:13.847Z,33.23
2018-12-09T15:29:44.467Z,36.67
2018-12-09T15:32:15.237Z,61.77
2018-12-09T15:34:47.195Z,67.53
2018-12-09T15:37:18.007Z,63.53
2018-12-09T15:39:48.738Z,205.60
2018-12-09T15:42:19.360Z,100.47
2018-12-09T15:44:51.110Z,78.90
2018-12-09T15:47:21.562Z,93.47
2018-12-09T15:49:52.274Z,79.67
2018-12-09T15:52:22.908Z,67.73
2018-12-09T15:54:53.559Z,51.03
2018-12-09T15:57:24.147Z,34.27
2018-12-09T15:59:54.599Z,31.97
2018-12-09T16:02:25.320Z,35.60
2018-12-09T16:04:57.434Z,41.73
2018-12-09T16:07:28.042Z,87.50
2018-12-09T16:09:58.647Z,87.43
2018-12-09T16:12:29.277Z,67.07
2018-12-09T16:15:00.669Z,64.53
2018-12-09T16:17:32.279Z,51.90
2018-12-09T16:20:02.782Z,50.70
2018-12-09T16:22:33.315Z,60.97
2018-12-09T16:25:04.010Z,55.60
2018-12-09T16:27:34.483Z,65.40
2018-12-09T16:30:05.196Z,51.13
2018-12-09T16:32:35.554Z,44.77
2018-12-09T16:35:06.503Z,36.47
2018-12-09T16:37:36.952Z,38.17
2018-12-09T16:40:07.680Z,70.77
2018-12-09T16:42:38.064Z,86.07
2018-12-09T16:45:09.466Z,60.00
2018-12-09T16:47:40.364Z,53.73
2018-12-09T16:50:10.975Z,42.60
2018-12-09T16:52:41.380Z,39.40
2018-12-09T16:55:12.767Z,40.10
2018-12-09T16:57:43.240Z,44.60
2018-12-09T17:00:13.612Z,52.87
2018-12-09T17:02:44.467Z,51.50
2018-12-09T17:05:15.008Z,46.30
2018-12-09T17:07:45.421Z,86.13
2018-12-09T17:10:16.315Z,77.20
2018-12-09T17:12:46.919Z,65.23
2018-12-09T17:15:17.901Z,69.50
2018-12-09T17:17:48.641Z,59.87
2018-12-09T17:20:18.797Z,48.70
2018-12-09T17:22:49.315Z,55.63
2018-12-09T17:25:20.202Z,66.47
2018-12-09T17:27:50.463Z,57.37
2018-12-09T17:30:21.107Z,53.10
2018-12-09T17:32:51.508Z,40.63
2018-12-09T17:35:22.076Z,36.83
2018-12-09T17:37:52.594Z,33.40
2018-12-09T17:40:23.261Z,40.50
2018-12-09T17:42:54.081Z,34.37
2018-12-09T17:45:25.030Z,36.10
2018-12-09T17:47:55.519Z,37.00
2018-12-09T17:50:25.906Z,38.00
2018-12-09T17:52:56.253Z,42.30
2018-12-09T17:55:27.558Z,42.73
2018-12-09T17:57:58.203Z,38.07
2018-12-09T18:00:28.764Z,41.00
2018-12-09T18:02:59.028Z,41.07
2018-12-09T18:05:29.725Z,40.50
2018-12-09T18:08:00.119Z,48.40
2018-12-09T18:10:30.888Z,96.87
2018-12-09T18:13:01.508Z,85.67
2018-12-09T18:15:32.597Z,73.13
2018-12-09T18:18:03.443Z,87.67
2018-12-09T18:20:33.815Z,95.97
2018-12-09T18:23:04.359Z,80.63
2018-12-09T18:25:34.964Z,48.50
2018-12-09T18:28:05.289Z,71.13
2018-12-09T18:30:35.858Z,67.77
2018-12-09T18:33:06.788Z,62.97
2018-12-09T18:35:37.259Z,59.97
2018-12-09T18:38:07.496Z,47.43
2018-12-09T18:40:37.803Z,31.80
2018-12-09T18:43:08.232Z,26.87
2018-12-09T18:45:39.930Z,28.97
2018-12-09T18:48:10.374Z,32.00
2018-12-09T18:50:40.788Z,31.97
2018-12-09T18:53:11.439Z,33.80
2018-12-09T18:55:42.119Z,36.43
2018-12-09T18:58:12.976Z,42.53
2018-12-09T19:00:43.295Z,36.67
2018-12-09T19:03:13.944Z,36.37
2018-12-09T19:05:44.897Z,48.50
2018-12-09T19:08:15.530Z,38.47
2018-12-09T19:10:45.738Z,58.03
2018-12-09T19:13:16.507Z,60.90
2018-12-09T19:15:47.110Z,54.93
2018-12-09T19:18:18.063Z,57.20
2018-12-09T19:20:48.472Z,56.00
2018-12-09T19:23:19.096Z,65.77
2018-12-09T19:25:49.686Z,64.13
2018-12-09T19:28:20.282Z,54.43
2018-12-09T19:30:50.759Z,53.70
2018-12-09T19:33:21.593Z,57.10
2018-12-09T19:38:17.895Z,69.23
2018-12-09T19:40:48.170Z,47.33
2018-12-09T19:43:18.697Z,36.93
2018-12-09T19:45:49.340Z,48.47
2018-12-09T19:48:19.964Z,51.73
2018-12-09T19:50:50.608Z,46.40
2018-12-09T19:53:21.422Z,42.20
2018-12-09T19:55:52.249Z,37.10
2018-12-09T19:58:22.925Z,42.70
2018-12-09T20:00:53.595Z,47.10
2018-12-09T20:03:24.143Z,54.40
2018-12-09T20:05:55.408Z,47.97
2018-12-09T20:08:25.942Z,55.93
2018-12-09T20:10:56.674Z,49.17
2018-12-09T20:13:27.268Z,61.70
2018-12-09T20:15:58.007Z,79.53
2018-12-09T20:18:28.721Z,70.90
2018-12-09T20:20:59.276Z,62.77
2018-12-09T20:23:29.827Z,83.43
2018-12-09T20:26:01.182Z,77.90
2018-12-09T20:28:31.564Z,58.80
2018-12-09T20:31:01.937Z,62.80
2018-12-09T20:33:32.342Z,62.03
2018-12-09T20:36:03.065Z,61.83
2018-12-09T20:38:33.735Z,69.17
2018-12-09T20:41:04.115Z,60.70
2018-12-09T20:43:34.778Z,55.00
2018-12-09T20:46:06.023Z,51.87
2018-12-09T20:48:36.549Z,64.20
2018-12-09T20:51:07.148Z,47.77
2018-12-09T20:53:37.778Z,45.70
2018-12-09T20:56:09.551Z,37.40
2018-12-09T20:58:40.095Z,43.77
2018-12-09T21:01:10.629Z,50.57
2018-12-09T21:03:41.078Z,47.47
2018-12-09T21:06:12.013Z,48.53
2018-12-09T21:08:42.507Z,30.20
2018-12-09T21:11:13.146Z,38.90
2018-12-09T21:13:43.720Z,47.07
2018-12-09T21:16:14.329Z,42.93
2018-12-09T21:18:45.096Z,30.63
2018-12-09T21:21:15.543Z,27.83
2018-12-09T21:23:46.068Z,27.60
2018-12-09T21:26:17.569Z,25.47
2018-12-09T21:28:47.934Z,24.60
2018-12-09T21:31:17.967Z,18.17
2018-12-09T21:33:48.620Z,24.07
2018-12-09T21:36:19.153Z,40.00
2018-12-09T21:38:49.776Z,37.80
2018-12-09T21:41:20.416Z,36.17
2018-12-09T21:43:50.980Z,35.60
2018-12-09T21:46:22.617Z,44.93
2018-12-09T21:48:53.227Z,37.40
2018-12-09T21:51:24.140Z,40.40
2018-12-09T21:53:54.775Z,46.80
2018-12-09T21:56:26.647Z,47.33
2018-12-09T21:58:57.106Z,48.20
2018-12-09T22:01:27.696Z,48.87
2018-12-09T22:03:58.163Z,49.10
2018-12-09T22:06:29.176Z,44.23
2018-12-09T22:08:59.996Z,35.00
2018-12-09T22:11:30.397Z,45.73
2018-12-09T22:14:00.876Z,50.77
2018-12-09T22:16:32.427Z,43.70
2018-12-09T22:19:03.313Z,47.70
2018-12-09T22:21:33.971Z,56.90
2018-12-09T22:24:04.403Z,50.53
2018-12-09T22:26:35.514Z,52.37
2018-12-09T22:29:06.048Z,50.83
2018-12-09T22:31:36.683Z,49.90
2018-12-09T22:34:07.170Z,36.30
2018-12-09T22:36:38.026Z,30.83
2018-12-09T22:39:08.887Z,27.50
2018-12-09T22:41:39.731Z,31.63
2018-12-09T22:44:10.288Z,32.30
2018-12-09T22:46:42.197Z,27.87
2018-12-09T22:49:12.793Z,20.03
2018-12-09T22:51:43.519Z,17.37
2018-12-09T22:54:14.039Z,16.13
2018-12-09T22:56:44.906Z,11.03
2018-12-09T22:59:15.193Z,15.13
2018-12-09T23:01:50.547Z,13.63
2018-12-09T23:04:21.053Z,20.00
2018-12-09T23:06:54.025Z,23.10
2018-12-09T23:09:24.971Z,28.37
2018-12-09T23:11:55.667Z,26.30
2018-12-09T23:14:26.245Z,30.07
2018-12-09T23:16:58.092Z,26.40
2018-12-09T23:19:28.923Z,25.43
2018-12-09T23:21:59.680Z,26.13
2018-12-09T23:24:30.135Z,25.23
2018-12-09T23:27:01.640Z,23.60
2018-12-09T23:29:32.525Z,25.70
2018-12-09T23:32:02.834Z,25.77
2018-12-09T23:34:33.507Z,23.67
2018-12-09T23:37:03.981Z,22.93
2018-12-09T23:39:34.532Z,21.20
2018-12-09T23:42:05.189Z,25.13
2018-12-09T23:44:35.719Z,25.80
2018-12-09T23:47:07.010Z,25.10
2018-12-09T23:49:37.637Z,26.27
2018-12-09T23:52:08.083Z,27.67
2018-12-09T23:54:38.758Z,26.83
2018-12-09T23:57:09.840Z,26.03
2018-12-09T23:59:40.531Z,21.97
